createdAt,value
2023-05-19T00:01:28.462Z,14.98
2023-05-19T00:06:33.406Z,14.96
2023-05-19T00:11:38.272Z,14.76
2023-05-19T00:16:42.482Z,14.82
2023-05-19T00:21:45.456Z,14.84
2023-05-19T00:26:48.495Z,14.84
2023-05-19T00:31:51.449Z,14.80
2023-05-19T00:36:54.343Z,14.77
2023-05-19T00:41:57.703Z,14.71
2023-05-19T00:47:01.530Z,14.75
2023-05-19T00:52:07.070Z,14.82
2023-05-19T00:57:10.157Z,14.81
2023-05-19T01:02:13.587Z,14.84
2023-05-19T01:07:16.783Z,14.78
2023-05-19T01:12:20.051Z,14.77
2023-05-19T01:17:26.503Z,14.80
2023-05-19T01:22:50.542Z,14.75
2023-05-19T01:28:12.197Z,14.75
2023-05-19T01:33:15.885Z,14.73
2023-05-19T01:38:21.082Z,14.71
2023-05-19T01:43:26.592Z,14.78
2023-05-19T01:48:30.915Z,14.79
2023-05-19T01:53:34.089Z,14.84
2023-05-19T01:58:49.038Z,14.81
2023-05-19T02:04:15.187Z,14.89
2023-05-19T02:09:33.361Z,14.95
2023-05-19T02:14:45.282Z,14.97
2023-05-19T02:19:48.501Z,15.22
2023-05-19T02:24:51.981Z,15.19
2023-05-19T02:29:55.113Z,15.41
2023-05-19T02:34:57.986Z,15.40
2023-05-19T02:40:01.128Z,15.46
2023-05-19T02:45:07.474Z,15.43
2023-05-19T02:50:10.650Z,15.46
2023-05-19T02:55:17.336Z,15.54
2023-05-19T03:00:20.479Z,15.61
2023-05-19T03:05:23.582Z,15.73
2023-05-19T03:10:26.492Z,15.51
2023-05-19T03:15:29.545Z,15.65
2023-05-19T03:20:32.752Z,15.56
2023-05-19T03:25:35.920Z,15.61
2023-05-19T03:30:39.079Z,15.38
2023-05-19T03:35:53.264Z,15.57
2023-05-19T03:40:56.646Z,15.68
2023-05-19T03:46:00.172Z,15.64
2023-05-19T03:51:21.911Z,15.82
2023-05-19T03:56:28.088Z,15.99
2023-05-19T04:01:30.986Z,15.79
2023-05-19T04:06:52.410Z,15.73
2023-05-19T04:11:56.405Z,15.79
2023-05-19T04:17:00.592Z,16.00
2023-05-19T04:22:03.530Z,16.36
2023-05-19T04:27:12.292Z,16.53
2023-05-19T04:32:18.140Z,17.03
2023-05-19T04:37:21.853Z,16.83
2023-05-19T04:42:26.400Z,17.23
2023-05-19T04:47:31.479Z,17.44
2023-05-19T04:52:34.558Z,17.63
2023-05-19T04:57:39.403Z,17.86
2023-05-19T05:02:43.805Z,18.07
2023-05-19T05:07:48.204Z,18.19
2023-05-19T05:12:52.268Z,18.61
2023-05-19T05:17:56.009Z,18.79
2023-05-19T05:23:02.323Z,18.81
2023-05-19T05:28:07.634Z,18.81
2023-05-19T05:33:12.950Z,18.64
2023-05-19T05:38:17.336Z,18.51
2023-05-19T05:43:20.321Z,18.51
2023-05-19T05:48:30.115Z,18.70
2023-05-19T05:53:37.433Z,18.90
2023-05-19T05:58:40.948Z,19.00
2023-05-19T06:03:45.267Z,19.07
2023-05-19T06:08:52.689Z,19.34
2023-05-19T06:13:56.459Z,19.54
2023-05-19T06:19:28.847Z,19.55
2023-05-19T06:24:50.184Z,20.00
2023-05-19T06:29:53.426Z,20.42
2023-05-19T06:34:56.543Z,20.78
2023-05-19T06:39:59.603Z,21.04
2023-05-19T06:45:03.412Z,21.20
2023-05-19T06:50:10.064Z,21.58
2023-05-19T06:55:15.598Z,21.81
2023-05-19T07:00:20.599Z,21.92
2023-05-19T07:05:27.149Z,21.98
2023-05-19T07:10:33.913Z,22.13
2023-05-19T07:15:37.409Z,22.14
2023-05-19T07:20:41.696Z,22.19
2023-05-19T07:25:44.629Z,22.33
2023-05-19T07:30:47.656Z,22.70
2023-05-19T07:35:50.593Z,22.79
2023-05-19T07:40:53.568Z,23.08
2023-05-19T07:45:56.695Z,23.26
2023-05-19T07:51:00.184Z,23.17
2023-05-19T07:56:03.814Z,22.96
2023-05-19T08:01:06.865Z,23.36
2023-05-19T08:06:09.892Z,23.78
2023-05-19T08:11:12.873Z,24.02
2023-05-19T08:16:16.772Z,24.64
2023-05-19T08:21:19.803Z,24.75
2023-05-19T08:26:23.083Z,24.96
2023-05-19T08:31:26.287Z,24.66
2023-05-19T08:36:29.690Z,24.76
2023-05-19T08:41:32.983Z,25.26
2023-05-19T08:46:36.381Z,25.52
2023-05-19T08:51:50.967Z,25.34
2023-05-19T08:56:54.209Z,25.67
2023-05-19T09:01:57.672Z,25.74
2023-05-19T09:07:04.381Z,24.77
2023-05-19T09:12:07.438Z,25.15
2023-05-19T09:17:10.843Z,25.52
2023-05-19T09:22:16.369Z,24.67
2023-05-19T09:27:25.316Z,24.78
2023-05-19T09:32:28.609Z,25.47
2023-05-19T09:37:32.637Z,25.87
2023-05-19T09:42:54.652Z,25.55
2023-05-19T09:47:58.039Z,25.61
2023-05-19T09:53:02.069Z,25.63
2023-05-19T09:58:05.173Z,25.53
2023-05-19T10:03:09.599Z,26.00
2023-05-19T10:08:13.118Z,26.65
2023-05-19T10:13:17.066Z,26.33
2023-05-19T10:18:21.324Z,26.41
2023-05-19T10:23:24.394Z,26.84
2023-05-19T10:28:38.428Z,26.87
2023-05-19T10:34:15.270Z,26.44
2023-05-19T10:39:25.935Z,26.60
2023-05-19T10:44:52.677Z,27.09
2023-05-19T10:49:56.388Z,26.89
2023-05-19T10:55:01.179Z,26.95
2023-05-19T11:00:29.028Z,27.36
2023-05-19T11:05:32.339Z,27.07
2023-05-19T11:10:35.729Z,25.76
2023-05-19T11:15:43.201Z,25.62
2023-05-19T11:20:58.274Z,25.32
2023-05-19T11:26:02.846Z,25.22
2023-05-19T11:31:08.392Z,25.14
2023-05-19T11:36:12.835Z,24.77
2023-05-19T11:41:18.844Z,24.93
2023-05-19T11:46:23.332Z,25.42
2023-05-19T11:51:26.670Z,25.40
2023-05-19T11:56:34.951Z,25.39
2023-05-19T12:01:38.101Z,25.85
2023-05-19T12:06:41.215Z,26.25
2023-05-19T12:11:44.406Z,26.35
2023-05-19T12:16:47.809Z,25.73
2023-05-19T12:21:51.755Z,26.25
2023-05-19T12:27:07.729Z,26.40
2023-05-19T12:32:10.798Z,27.27
2023-05-19T12:37:14.241Z,27.02
2023-05-19T12:42:17.061Z,27.70
2023-05-19T12:47:20.731Z,28.04
2023-05-19T12:52:24.086Z,28.14
2023-05-19T12:57:28.127Z,28.29
2023-05-19T13:02:31.145Z,27.95
2023-05-19T13:07:35.935Z,27.90
2023-05-19T13:12:39.044Z,27.83
2023-05-19T13:17:42.414Z,27.64
2023-05-19T13:22:45.963Z,28.69
2023-05-19T13:27:49.862Z,29.54
2023-05-19T13:32:52.962Z,29.91
2023-05-19T13:37:56.419Z,30.19
2023-05-19T13:42:59.679Z,30.44
2023-05-19T13:48:02.936Z,29.92
2023-05-19T13:53:06.145Z,29.61
2023-05-19T13:58:11.268Z,29.18
2023-05-19T14:03:17.571Z,28.71
2023-05-19T14:08:21.128Z,27.78
2023-05-19T14:18:32.714Z,27.62
2023-05-19T14:23:35.808Z,27.66
2023-05-19T14:28:38.941Z,28.14
2023-05-19T14:33:41.930Z,28.29
2023-05-19T14:38:45.025Z,28.05
2023-05-19T14:43:48.909Z,27.37
2023-05-19T14:48:51.974Z,26.96
2023-05-19T14:53:54.994Z,27.59
2023-05-19T14:58:57.953Z,28.01
2023-05-19T15:04:01.072Z,28.09
2023-05-19T15:09:04.232Z,28.30
2023-05-19T15:14:07.205Z,28.29
2023-05-19T15:19:10.572Z,28.07
2023-05-19T15:24:13.621Z,27.97
2023-05-19T15:29:16.553Z,28.03
2023-05-19T15:34:20.281Z,27.94
2023-05-19T15:39:23.646Z,28.11
2023-05-19T15:44:28.336Z,28.36
2023-05-19T15:49:32.021Z,27.55
2023-05-19T15:54:35.150Z,27.68
2023-05-19T15:59:38.131Z,27.86
2023-05-19T16:04:41.224Z,27.63
2023-05-19T16:09:44.277Z,27.37
2023-05-19T16:14:47.382Z,27.02
2023-05-19T16:19:50.739Z,26.11
2023-05-19T16:24:53.597Z,25.51
2023-05-19T16:29:56.690Z,25.08
2023-05-19T16:34:59.793Z,24.53
2023-05-19T16:40:03.104Z,24.01
2023-05-19T16:45:07.955Z,23.58
2023-05-19T16:50:11.631Z,23.21
2023-05-19T16:55:19.853Z,22.82
2023-05-19T17:00:23.620Z,22.54
2023-05-19T17:05:28.034Z,22.25
2023-05-19T17:10:31.165Z,21.96
2023-05-19T17:15:35.453Z,21.76
2023-05-19T17:20:38.658Z,21.53
2023-05-19T17:25:41.554Z,21.35
2023-05-19T17:30:44.771Z,21.23
2023-05-19T17:35:47.934Z,21.10
2023-05-19T17:40:51.236Z,20.95
2023-05-19T17:45:54.508Z,20.80
2023-05-19T17:50:57.986Z,20.66
2023-05-19T17:56:03.285Z,20.56
2023-05-19T18:01:26.006Z,20.44
2023-05-19T18:06:36.091Z,20.45
2023-05-19T18:11:39.612Z,20.35
2023-05-19T18:16:42.774Z,20.25
2023-05-19T18:22:04.837Z,20.13
2023-05-19T18:27:07.740Z,20.07
2023-05-19T18:32:10.990Z,20.01
2023-05-19T18:37:32.871Z,20.00
2023-05-19T18:42:36.038Z,19.96
2023-05-19T18:47:39.146Z,19.92
2023-05-19T18:52:42.191Z,19.89
2023-05-19T18:57:45.174Z,19.79
2023-05-19T19:02:48.361Z,19.77
2023-05-19T19:07:52.661Z,19.78
2023-05-19T19:12:55.888Z,19.69
2023-05-19T19:17:58.970Z,19.66
2023-05-19T19:23:05.325Z,19.62
2023-05-19T19:28:08.504Z,19.61
2023-05-19T19:33:11.672Z,19.60
2023-05-19T19:38:14.883Z,19.24
2023-05-19T19:43:18.047Z,18.98
2023-05-19T19:48:21.448Z,18.94
2023-05-19T19:53:24.523Z,18.93
2023-05-19T19:58:28.899Z,18.85
2023-05-19T20:03:33.649Z,18.88
2023-05-19T20:08:36.700Z,18.85
2023-05-19T20:13:39.723Z,18.81
2023-05-19T20:18:42.685Z,18.78
2023-05-19T20:23:46.549Z,18.75
2023-05-19T20:28:49.573Z,18.74
2023-05-19T20:33:52.626Z,18.71
2023-05-19T20:38:55.748Z,18.66
2023-05-19T20:43:58.781Z,18.60
2023-05-19T20:49:01.821Z,18.49
2023-05-19T20:54:23.145Z,18.43
2023-05-19T20:59:26.282Z,18.37
2023-05-19T21:04:29.440Z,18.25
2023-05-19T21:09:32.497Z,18.09
2023-05-19T21:14:35.759Z,18.09
2023-05-19T21:19:38.769Z,18.08
2023-05-19T21:24:42.154Z,18.06
2023-05-19T21:29:45.139Z,18.07
2023-05-19T21:34:48.164Z,18.09
2023-05-19T21:40:10.050Z,18.12
2023-05-19T21:45:13.336Z,18.16
2023-05-19T21:50:17.671Z,18.13
2023-05-19T21:55:22.262Z,18.16
2023-05-19T22:00:25.894Z,18.19
2023-05-19T22:05:32.598Z,18.17
2023-05-19T22:10:37.429Z,18.17
2023-05-19T22:15:58.911Z,18.13
2023-05-19T22:21:01.886Z,18.11
2023-05-19T22:26:04.869Z,18.08
2023-05-19T22:31:07.841Z,18.03
2023-05-19T22:36:11.365Z,17.96
2023-05-19T22:41:14.542Z,17.96
2023-05-19T22:46:18.038Z,17.91
2023-05-19T22:51:21.236Z,17.92
2023-05-19T22:56:24.343Z,17.90
2023-05-19T23:01:27.620Z,17.85
2023-05-19T23:06:31.739Z,17.83
2023-05-19T23:11:36.068Z,17.80
2023-05-19T23:16:39.108Z,17.82
2023-05-19T23:21:42.038Z,17.84
2023-05-19T23:26:45.031Z,17.80
2023-05-19T23:31:48.025Z,17.76
2023-05-19T23:36:51.140Z,17.71
2023-05-19T23:41:54.010Z,17.70
2023-05-19T23:46:57.035Z,17.57
2023-05-19T23:51:59.944Z,17.47
2023-05-19T23:57:03.212Z,17.37
